Time,TemperatureF,DewpointF,PressureIn,WindDirection,WindDirectionDegrees,WindSpeedMPH,WindSpeedGustMPH,Humidity,HourlyPrecipIn,Conditions,Clouds,dailyrainin,SoftwareType,DateUTC
2013-03-13 00:03:00,37.0,28.0,29.94,South,169,4.0,13.0,71,0.00,,,0.50,,2013-03-13 04:03:00,
2013-03-13 00:13:00,37.0,28.0,29.94,South,169,4.0,13.0,71,0.00,,,0.50,,2013-03-13 04:13:00,
2013-03-13 00:23:00,36.0,28.0,29.94,South,173,3.0,9.0,73,0.00,,,0.50,,2013-03-13 04:23:00,
2013-03-13 00:32:00,36.0,29.0,29.95,South,172,2.0,10.0,74,0.00,,,0.50,,2013-03-13 04:32:00,
2013-03-13 00:43:00,36.0,29.0,29.95,South,172,2.0,10.0,74,0.00,,,0.50,,2013-03-13 04:43:00,
2013-03-13 00:53:00,36.0,29.0,29.94,South,170,2.0,8.0,75,0.00,,,0.50,,2013-03-13 04:53:00,
2013-03-13 01:02:00,36.0,29.0,29.94,South,174,1.0,13.0,74,0.00,,,0.31,,2013-03-13 05:02:00,
2013-03-13 01:12:00,36.0,29.0,29.94,South,174,1.0,13.0,74,0.00,,,0.31,,2013-03-13 05:12:00,
2013-03-13 01:22:00,36.0,29.0,29.94,SSE,165,1.0,9.0,74,0.00,,,0.31,,2013-03-13 05:22:00,
2013-03-13 01:32:00,36.0,28.0,29.94,South,169,3.0,14.0,73,0.00,,,0.31,,2013-03-13 05:32:00,
2013-03-13 01:42:00,36.0,28.0,29.94,South,169,3.0,14.0,73,0.00,,,0.31,,2013-03-13 05:42:00,
2013-03-13 01:52:00,36.0,28.0,29.94,South,169,2.0,7.0,73,0.00,,,0.31,,2013-03-13 05:52:00,
2013-03-13 02:02:00,36.0,28.0,29.94,SSE,166,1.0,8.0,71,0.00,,,0.20,,2013-03-13 06:02:00,
2013-03-13 02:12:00,36.0,28.0,29.94,SSE,166,1.0,8.0,71,0.00,,,0.20,,2013-03-13 06:12:00,
2013-03-13 02:23:00,36.0,27.0,29.94,South,174,1.0,8.0,70,0.00,,,0.20,,2013-03-13 06:23:00,
2013-03-13 02:32:00,36.0,28.0,29.94,South,172,1.0,12.0,71,0.00,,,0.20,,2013-03-13 06:32:00,
2013-03-13 02:42:00,36.0,28.0,29.94,South,172,1.0,12.0,71,0.00,,,0.20,,2013-03-13 06:42:00,
2013-03-13 02:53:00,35.0,27.0,29.94,South,174,0.0,7.0,72,0.00,,,0.20,,2013-03-13 06:53:00,
2013-03-13 03:03:00,35.0,27.0,29.94,South,169,2.0,7.0,72,0.00,,,0.15,,2013-03-13 07:03:00,
2013-03-13 03:12:00,35.0,27.0,29.94,South,169,2.0,7.0,72,0.00,,,0.15,,2013-03-13 07:12:00,
2013-03-13 03:23:00,35.0,27.0,29.94,South,174,2.0,6.0,71,0.00,,,0.15,,2013-03-13 07:23:00,
2013-03-13 03:33:00,34.0,25.0,29.93,South,172,2.0,12.0,70,0.00,,,0.15,,2013-03-13 07:33:00,
2013-03-13 03:42:00,34.0,25.0,29.93,South,172,2.0,12.0,70,0.00,,,0.15,,2013-03-13 07:42:00,
2013-03-13 03:53:00,34.0,25.0,29.93,South,176,2.0,9.0,69,0.00,,,0.15,,2013-03-13 07:53:00,
2013-03-13 04:03:00,34.0,23.0,29.93,South,173,1.0,10.0,65,0.00,,,0.12,,2013-03-13 08:03:00,
2013-03-13 04:12:00,34.0,23.0,29.93,South,173,1.0,10.0,65,0.00,,,0.12,,2013-03-13 08:12:00,
2013-03-13 04:23:00,33.0,21.0,29.93,South,173,2.0,9.0,62,0.00,,,0.12,,2013-03-13 08:23:00,
2013-03-13 04:32:00,33.0,22.0,29.93,South,169,1.0,8.0,63,0.00,,,0.12,,2013-03-13 08:32:00,
2013-03-13 04:43:00,33.0,22.0,29.93,South,169,1.0,8.0,63,0.00,,,0.12,,2013-03-13 08:43:00,
2013-03-13 04:54:00,33.0,21.0,29.93,South,170,1.0,7.0,60,0.00,,,0.12,,2013-03-13 08:54:00,
2013-03-13 05:02:00,33.0,21.0,29.93,South,174,1.0,6.0,61,0.00,,,0.02,,2013-03-13 09:02:00,
2013-03-13 05:12:00,33.0,21.0,29.93,South,174,1.0,6.0,61,0.00,,,0.02,,2013-03-13 09:12:00,
2013-03-13 05:22:00,32.0,21.0,29.93,South,172,0.0,6.0,64,0.00,,,0.02,,2013-03-13 09:22:00,
2013-03-13 05:32:00,32.0,22.0,29.93,South,172,1.0,8.0,67,0.00,,,0.02,,2013-03-13 09:32:00,
2013-03-13 05:42:00,32.0,22.0,29.93,South,172,1.0,8.0,67,0.00,,,0.02,,2013-03-13 09:42:00,
2013-03-13 05:52:00,31.0,22.0,29.93,South,172,1.0,7.0,68,0.00,,,0.02,,2013-03-13 09:52:00,
2013-03-13 06:02:00,31.0,21.0,29.93,South,175,0.0,6.0,67,0.00,,,0.00,,2013-03-13 10:02:00,
2013-03-13 06:12:00,31.0,21.0,29.93,South,175,0.0,6.0,67,0.00,,,0.00,,2013-03-13 10:12:00,
2013-03-13 06:22:00,32.0,22.0,29.93,SSE,167,2.0,7.0,67,0.00,,,0.00,,2013-03-13 10:22:00,
2013-03-13 06:32:00,31.0,21.0,29.93,South,169,0.0,6.0,67,0.00,,,0.00,,2013-03-13 10:32:00,
2013-03-13 06:42:00,31.0,21.0,29.93,South,169,0.0,6.0,67,0.00,,,0.00,,2013-03-13 10:42:00,
2013-03-13 06:52:00,32.0,23.0,29.94,SSE,160,2.0,10.0,68,0.00,,,0.00,,2013-03-13 10:52:00,
2013-03-13 07:02:00,31.0,22.0,29.94,SSE,166,3.0,10.0,68,0.00,,,0.00,,2013-03-13 11:02:00,
2013-03-13 07:12:00,31.0,22.0,29.94,SSE,166,3.0,10.0,68,0.00,,,0.00,,2013-03-13 11:12:00,
2013-03-13 07:22:00,31.0,22.0,29.94,South,169,0.0,8.0,69,0.00,,,0.00,,2013-03-13 11:22:00,
2013-03-13 07:32:00,31.0,22.0,29.94,South,180,0.0,8.0,70,0.00,,,0.00,,2013-03-13 11:32:00,
2013-03-13 07:42:00,31.0,22.0,29.94,South,180,0.0,8.0,70,0.00,,,0.00,,2013-03-13 11:42:00,
2013-03-13 07:53:00,31.0,22.0,29.94,SSE,165,2.0,9.0,69,0.00,,,0.00,,2013-03-13 11:53:00,
2013-03-13 08:02:00,31.0,22.0,29.94,South,172,1.0,7.0,69,0.00,,,0.00,,2013-03-13 12:02:00,
2013-03-13 08:12:00,31.0,22.0,29.94,South,172,1.0,7.0,69,0.00,,,0.00,,2013-03-13 12:12:00,
2013-03-13 08:22:00,32.0,23.0,29.94,South,171,1.0,9.0,69,0.00,,,0.00,,2013-03-13 12:22:00,
2013-03-13 08:32:00,32.0,23.0,29.95,South,170,1.0,7.0,69,0.00,,,0.00,,2013-03-13 12:32:00,
2013-03-13 08:42:00,32.0,23.0,29.95,South,170,1.0,7.0,69,0.00,,,0.00,,2013-03-13 12:42:00,
2013-03-13 08:53:00,32.0,23.0,29.95,South,172,1.0,7.0,69,0.00,,,0.00,,2013-03-13 12:53:00,
2013-03-13 09:02:00,33.0,24.0,29.96,South,170,2.0,7.0,69,0.00,,,0.00,,2013-03-13 13:02:00,
2013-03-13 09:12:00,33.0,24.0,29.96,South,170,2.0,7.0,69,0.00,,,0.00,,2013-03-13 13:12:00,
2013-03-13 09:22:00,33.0,24.0,29.96,South,171,3.0,11.0,68,0.00,,,0.00,,2013-03-13 13:22:00,
2013-03-13 09:33:00,34.0,24.0,29.96,SSE,163,4.0,13.0,67,0.00,,,0.00,,2013-03-13 13:33:00,
2013-03-13 09:43:00,34.0,24.0,29.96,SSE,163,4.0,13.0,67,0.00,,,0.00,,2013-03-13 13:43:00,
2013-03-13 09:53:00,34.0,24.0,29.96,SSE,167,4.0,14.0,67,0.00,,,0.00,,2013-03-13 13:53:00,
2013-03-13 10:02:00,35.0,25.0,29.97,South,169,2.0,12.0,67,0.00,,,0.00,,2013-03-13 14:02:00,
2013-03-13 10:12:00,35.0,25.0,29.97,South,169,2.0,12.0,67,0.00,,,0.00,,2013-03-13 14:12:00,
2013-03-13 10:22:00,35.0,26.0,29.97,SSE,168,2.0,10.0,69,0.00,,,0.00,,2013-03-13 14:22:00,
2013-03-13 10:33:00,36.0,25.0,29.96,South,173,6.0,16.0,65,0.00,,,0.00,,2013-03-13 14:33:00,
2013-03-13 10:42:00,36.0,25.0,29.96,South,173,6.0,16.0,65,0.00,,,0.00,,2013-03-13 14:42:00,
2013-03-13 10:53:00,37.0,26.0,29.96,South,169,3.0,14.0,65,0.00,,,0.00,,2013-03-13 14:53:00,
2013-03-13 11:03:00,37.0,26.0,29.97,South,170,4.0,16.0,64,0.00,,,0.00,,2013-03-13 15:03:00,
2013-03-13 11:12:00,37.0,26.0,29.97,South,170,4.0,16.0,64,0.00,,,0.00,,2013-03-13 15:12:00,
2013-03-13 11:22:00,37.0,26.0,29.97,South,170,4.0,16.0,64,0.00,,,0.00,,2013-03-13 15:22:00,
2013-03-13 11:32:00,37.0,25.0,29.96,SSE,166,4.0,22.0,61,0.00,,,0.00,,2013-03-13 15:32:00,
2013-03-13 11:43:00,37.0,25.0,29.96,SSE,166,4.0,22.0,61,0.00,,,0.00,,2013-03-13 15:43:00,
2013-03-13 11:52:00,37.0,25.0,29.96,SSE,162,4.0,20.0,62,0.00,,,0.00,,2013-03-13 15:52:00,
2013-03-13 12:03:00,38.0,25.0,29.96,SSE,166,5.0,17.0,60,0.00,,,0.00,,2013-03-13 16:03:00,
2013-03-13 12:12:00,38.0,25.0,29.96,SSE,166,5.0,17.0,60,0.00,,,0.00,,2013-03-13 16:12:00,
2013-03-13 12:22:00,38.0,23.0,29.96,South,172,7.0,21.0,55,0.00,,,0.00,,2013-03-13 16:22:00,
2013-03-13 12:32:00,39.0,25.0,29.96,South,174,3.0,11.0,56,0.00,,,0.00,,2013-03-13 16:32:00,
2013-03-13 12:42:00,39.0,25.0,29.96,South,174,3.0,11.0,56,0.00,,,0.00,,2013-03-13 16:42:00,
2013-03-13 12:52:00,38.0,23.0,29.96,South,174,6.0,17.0,54,0.00,,,0.00,,2013-03-13 16:52:00,
2013-03-13 13:02:00,39.0,21.0,29.96,South,173,4.0,15.0,49,0.00,,,0.00,,2013-03-13 17:02:00,
2013-03-13 13:12:00,39.0,21.0,29.96,South,173,4.0,15.0,49,0.00,,,0.00,,2013-03-13 17:12:00,
2013-03-13 13:22:00,39.0,22.0,29.96,South,176,4.0,17.0,50,0.00,,,0.00,,2013-03-13 17:22:00,
2013-03-13 13:33:00,40.0,21.0,29.95,SSE,166,5.0,14.0,47,0.00,,,0.00,,2013-03-13 17:33:00,
2013-03-13 13:42:00,40.0,21.0,29.95,SSE,166,5.0,14.0,47,0.00,,,0.00,,2013-03-13 17:42:00,
2013-03-13 13:53:00,39.0,20.0,29.95,South,170,4.0,15.0,47,0.00,,,0.00,,2013-03-13 17:53:00,
2013-03-13 14:02:00,39.0,20.0,29.95,South,176,5.0,17.0,46,0.00,,,0.00,,2013-03-13 18:02:00,
2013-03-13 14:12:00,39.0,20.0,29.95,South,176,5.0,17.0,46,0.00,,,0.00,,2013-03-13 18:12:00,
2013-03-13 14:22:00,39.0,20.0,29.95,South,176,5.0,17.0,46,0.00,,,0.00,,2013-03-13 18:22:00,
2013-03-13 14:33:00,40.0,22.0,29.95,South,173,5.0,15.0,48,0.00,,,0.00,,2013-03-13 18:33:00,
2013-03-13 14:42:00,40.0,22.0,29.95,South,173,5.0,15.0,48,0.00,,,0.00,,2013-03-13 18:42:00,
2013-03-13 14:52:00,41.0,23.0,29.95,South,172,3.0,17.0,49,0.00,,,0.00,,2013-03-13 18:52:00,
2013-03-13 15:03:00,40.0,20.0,29.95,South,175,2.0,12.0,45,0.00,,,0.00,,2013-03-13 19:03:00,
2013-03-13 15:12:00,40.0,20.0,29.95,South,175,2.0,12.0,45,0.00,,,0.00,,2013-03-13 19:12:00,
2013-03-13 15:22:00,40.0,23.0,29.95,South,170,2.0,10.0,50,0.00,,,0.00,,2013-03-13 19:22:00,
2013-03-13 15:32:00,40.0,22.0,29.94,South,174,2.0,11.0,48,0.00,,,0.00,,2013-03-13 19:32:00,
2013-03-13 15:43:00,40.0,22.0,29.94,South,174,2.0,11.0,48,0.00,,,0.00,,2013-03-13 19:43:00,
2013-03-13 15:52:00,41.0,24.0,29.95,South,172,2.0,11.0,50,0.00,,,0.00,,2013-03-13 19:52:00,
2013-03-13 16:02:00,41.0,24.0,29.95,South,172,2.0,11.0,50,0.00,,,0.00,,2013-03-13 20:02:00,
2013-03-13 16:13:00,41.0,24.0,29.95,South,172,2.0,11.0,50,0.00,,,0.00,,2013-03-13 20:13:00,
2013-03-13 16:22:00,39.0,20.0,29.95,SSE,158,3.0,18.0,47,0.00,,,0.00,,2013-03-13 20:22:00,
2013-03-13 16:32:00,38.0,21.0,29.95,South,174,2.0,11.0,49,0.00,,,0.00,,2013-03-13 20:32:00,
2013-03-13 16:42:00,38.0,21.0,29.95,South,174,2.0,11.0,49,0.00,,,0.00,,2013-03-13 20:42:00,
2013-03-13 16:52:00,38.0,19.0,29.94,South,174,3.0,13.0,46,0.00,,,0.00,,2013-03-13 20:52:00,
2013-03-13 17:02:00,37.0,19.0,29.95,South,170,4.0,13.0,47,0.00,,,0.00,,2013-03-13 21:02:00,
2013-03-13 17:12:00,37.0,19.0,29.95,South,170,4.0,13.0,47,0.00,,,0.00,,2013-03-13 21:12:00,
2013-03-13 17:22:00,37.0,18.0,29.96,South,177,2.0,9.0,46,0.00,,,0.00,,2013-03-13 21:22:00,
2013-03-13 17:33:00,36.0,18.0,29.96,South,174,5.0,21.0,48,0.00,,,0.00,,2013-03-13 21:33:00,
2013-03-13 17:42:00,36.0,18.0,29.96,South,174,5.0,21.0,48,0.00,,,0.00,,2013-03-13 21:42:00,
2013-03-13 17:52:00,36.0,19.0,29.97,SSE,167,2.0,16.0,50,0.00,,,0.00,,2013-03-13 21:52:00,
2013-03-13 18:02:00,35.0,19.0,29.96,South,174,5.0,20.0,52,0.00,,,0.00,,2013-03-13 22:02:00,
2013-03-13 18:12:00,35.0,19.0,29.96,South,174,5.0,20.0,52,0.00,,,0.00,,2013-03-13 22:12:00,
2013-03-13 18:22:00,34.0,21.0,29.97,South,176,3.0,12.0,58,0.00,,,0.00,,2013-03-13 22:22:00,
2013-03-13 18:32:00,32.0,20.0,29.97,South,171,3.0,15.0,61,0.00,,,0.00,,2013-03-13 22:32:00,
2013-03-13 18:42:00,32.0,20.0,29.97,South,171,3.0,15.0,61,0.00,,,0.00,,2013-03-13 22:42:00,
2013-03-13 18:52:00,32.0,19.0,29.96,South,172,7.0,20.0,58,0.00,,,0.00,,2013-03-13 22:52:00,
2013-03-13 19:02:00,31.0,19.0,29.96,SSE,165,5.0,21.0,61,0.00,,,0.00,,2013-03-13 23:02:00,
2013-03-13 19:12:00,31.0,19.0,29.96,SSE,165,5.0,21.0,61,0.00,,,0.00,,2013-03-13 23:12:00,
2013-03-13 19:22:00,31.0,20.0,29.97,South,172,4.0,19.0,62,0.00,,,0.00,,2013-03-13 23:22:00,
2013-03-13 19:32:00,31.0,20.0,29.98,South,172,0.0,11.0,62,0.00,,,0.00,,2013-03-13 23:32:00,
2013-03-13 19:52:00,30.0,18.0,29.98,SSE,167,4.0,15.0,61,0.00,,,0.00,,2013-03-13 23:52:00,
2013-03-13 20:02:00,29.0,18.0,29.98,South,175,4.0,14.0,63,0.00,,,0.00,,2013-03-14 00:02:00,
2013-03-13 20:22:00,29.0,18.0,29.99,SSE,166,2.0,13.0,64,0.00,,,0.00,,2013-03-14 00:22:00,
2013-03-13 20:32:00,29.0,18.0,29.99,SSE,166,2.0,13.0,64,0.00,,,0.00,,2013-03-14 00:32:00,
2013-03-13 20:42:00,29.0,18.0,29.99,SSE,166,2.0,13.0,64,0.00,,,0.00,,2013-03-14 00:42:00,
2013-03-13 20:52:00,28.0,18.0,29.99,SSE,162,5.0,16.0,65,0.00,,,0.00,,2013-03-14 00:52:00,
2013-03-13 21:03:00,28.0,18.0,29.99,South,173,4.0,12.0,65,0.00,,,0.00,,2013-03-14 01:03:00,
2013-03-13 21:12:00,28.0,18.0,29.99,South,173,4.0,12.0,65,0.00,,,0.00,,2013-03-14 01:12:00,
2013-03-13 21:23:00,28.0,18.0,30.00,South,179,2.0,10.0,65,0.00,,,0.00,,2013-03-14 01:23:00,
2013-03-13 21:32:00,27.0,17.0,30.01,South,172,1.0,13.0,65,0.00,,,0.00,,2013-03-14 01:32:00,
2013-03-13 21:42:00,27.0,17.0,30.01,South,172,1.0,13.0,65,0.00,,,0.00,,2013-03-14 01:42:00,
2013-03-13 21:52:00,27.0,17.0,30.01,South,172,1.0,6.0,66,0.00,,,0.00,,2013-03-14 01:52:00,
2013-03-13 22:02:00,27.0,17.0,30.01,South,174,3.0,9.0,66,0.00,,,0.00,,2013-03-14 02:02:00,
2013-03-13 22:12:00,27.0,17.0,30.01,South,174,3.0,9.0,66,0.00,,,0.00,,2013-03-14 02:12:00,
2013-03-13 22:22:00,26.0,16.0,30.00,South,174,4.0,15.0,66,0.00,,,0.00,,2013-03-14 02:22:00,
2013-03-13 22:33:00,26.0,16.0,30.01,South,176,4.0,16.0,66,0.00,,,0.00,,2013-03-14 02:33:00,
2013-03-13 22:42:00,26.0,16.0,30.01,South,176,4.0,16.0,66,0.00,,,0.00,,2013-03-14 02:42:00,
2013-03-13 22:51:00,26.0,16.0,30.01,South,176,4.0,16.0,66,0.00,,,0.00,,2013-03-14 02:51:00,
2013-03-13 23:02:00,25.0,16.0,30.01,South,174,2.0,6.0,67,0.00,,,0.00,,2013-03-14 03:02:00,
2013-03-13 23:12:00,25.0,16.0,30.01,South,174,2.0,6.0,67,0.00,,,0.00,,2013-03-14 03:12:00,
2013-03-13 23:23:00,25.0,16.0,30.01,South,175,2.0,8.0,67,0.00,,,0.00,,2013-03-14 03:23:00,
2013-03-13 23:32:00,25.0,16.0,30.01,South,175,2.0,8.0,67,0.00,,,0.00,,2013-03-14 03:32:00,
2013-03-13 23:42:00,25.0,16.0,30.01,South,175,2.0,8.0,67,0.00,,,0.00,,2013-03-14 03:42:00,